Webcam 1 more information Webcam 1


Webcam 2 more information Webcam 2


avvertimento per Temporali more information blitzortung!


avvertimento per Neve / Ghiaccio more information rain snow radar


altri nostri siti meteo:

TortoretometeolidoSito sul meteo

TortoretometeolidoSito sul meteo

Pomeziameteo 1Sito sul meteo

Pomeziameteo DashboardSito sul meteo

Caput FrigorisSito sul meteo

BarcellonameteoSito sul meteo

MeteoipassiSito sul meteo

ViterbometeoSito sul meteo

CastelnuovovomanometeoSito sul meteo



Vento Inizio validita dal: 24-09-2018 01:00 Fino: 18:59 Allerta per: Vento Livello: Arancione info button
Neve/Ghiaccio Inizio validita dal: 24-09-2018 01:00 Fino: 18:59 Allerta per: Neve/Ghiaccio Livello: Arancione info button
Temporali Inizio validita dal: 24-09-2018 07:00 Fino: 18:59 Allerta per: Temporali Livello: Giallo info button

Report METAR

   
LIBP - Pescara
Dati ricevuti: 24-09-2018 03:50
Sereno  
Sereno  
   Vento: W 13 km/h
Vento: W 13 km/h
Temperatura: 25°C
P.to Rugiada: 14°C
Umidita: 51%
Barometro: 1011 hPa
Nuvole: Sereno
Visibilita: oltre 10 km
dettagli cloud: Sereno
LIBP 240150Z AUTO 24007KT 9999 NCD 25/14 Q1011
LIRZ - Perugia
Dati ricevuti: 24-09-2018 03:50
Molto nuvoloso  
Molto nuvoloso  
   Vento: Sud 13 km/h
Vento: Sud 13 km/h
Temperatura: 22°C
P.to Rugiada: 18°C
Umidita: 78%
Barometro: 1015 hPa
Nuvole: Molto nuvoloso
Visibilita: oltre 10 km
dettagli cloud: Poche nuvole 2100 ft,
Molto nuvoloso 4100 ft
LIRZ 240150Z AUTO 19007KT 9999 FEW021/// BKN041/// 22/18 Q1015
LIQN - Rieti
Dati ricevuti: 23-09-2018 19:50
DATI Obsoleti
Poche nuvole  
Poche nuvole  
   Vento: S 7.4 km/h
Vento: S 7.4 km/h
Temperatura: 22°C
P.to Rugiada: 17°C
Umidita: 73%
Barometro: 1019 hPa
Nuvole: Poche nuvole
Visibilita: oltre 10 km
dettagli cloud: Poche nuvole 4000 ft
LIQN 231750Z 15004KT 9999 FEW040 22/17 Q1019
LIPY - Falconara
Dati ricevuti: 24-09-2018 03:50
Sereno  
Sereno  
   Vento: Variabile 1.9 km/h
Vento: Variabile 1.9 km/h
Temperatura: 22°C
P.to Rugiada: 15°C
Umidita: 65%
Barometro: 1011 hPa
Visibilita: oltre 10 km
dettagli cloud: Sereno
LIPY 240150Z VRB01KT CAVOK 22/15 Q1011
  

Script sviluppato da  Saratoga-weather.org Adattato per il modello da  Weerstation Leuven

Potete trovare le nostre info meteo anche a:

European Weather Network

Weather Underground

AWEKAS

Citizen Weather Observer Program (CWOP)

HAMweather, WeatherForYou, PWS Weather

Strumentazione usata:

Stazione meteo
Davis VP2

Programma gestore dati meteo
WVIEW

Server per i dati meteo
My Computer

Provider
My provider

Davis VP2

WVIEW

My Computer

My provider